createdAt,value
2019-05-06T00:01:59.780Z,5.83
2019-05-06T00:04:31.364Z,8.07
2019-05-06T00:07:01.638Z,5.97
2019-05-06T00:09:31.812Z,6.87
2019-05-06T00:12:03.912Z,7.07
2019-05-06T00:14:34.027Z,6.00
2019-05-06T00:17:04.443Z,6.60
2019-05-06T00:19:34.520Z,6.40
2019-05-06T00:22:06.329Z,6.80
2019-05-06T00:24:45.602Z,7.40
2019-05-06T00:27:26.167Z,6.15
2019-05-06T00:29:56.229Z,7.00
2019-05-06T00:32:26.391Z,7.43
2019-05-06T00:34:56.529Z,6.87
2019-05-06T00:37:26.729Z,7.07
2019-05-06T00:40:19.041Z,6.90
2019-05-06T00:42:56.941Z,6.77
2019-05-06T00:45:26.950Z,6.60
2019-05-06T00:47:56.986Z,7.00
2019-05-06T00:50:27.131Z,7.70
2019-05-06T00:52:58.347Z,7.20
2019-05-06T00:55:28.483Z,7.20
2019-05-06T00:57:58.600Z,6.67
2019-05-06T01:00:33.824Z,6.57
2019-05-06T01:03:04.381Z,7.47
2019-05-06T01:05:34.916Z,7.27
2019-05-06T01:08:05.464Z,7.03
2019-05-06T01:10:35.854Z,7.10
2019-05-06T01:13:28.320Z,7.33
2019-05-06T01:15:58.579Z,6.47
2019-05-06T01:18:29.931Z,7.03
2019-05-06T01:21:11.879Z,7.60
2019-05-06T01:23:44.117Z,6.97
2019-05-06T01:26:16.925Z,7.60
2019-05-06T01:28:47.061Z,9.00
2019-05-06T01:31:17.095Z,6.67
2019-05-06T01:33:47.182Z,7.10
2019-05-06T01:36:17.430Z,6.20
2019-05-06T01:39:21.633Z,7.40
2019-05-06T01:42:04.586Z,6.77
2019-05-06T01:44:36.065Z,8.07
2019-05-06T01:47:06.256Z,7.23
2019-05-06T01:49:36.428Z,10.50
2019-05-06T01:52:06.549Z,7.77
2019-05-06T01:54:36.625Z,7.57
2019-05-06T01:57:07.037Z,6.60
2019-05-06T01:59:37.100Z,7.27
2019-05-06T02:02:07.670Z,6.77
2019-05-06T02:04:37.856Z,6.90
2019-05-06T02:07:08.192Z,6.80
2019-05-06T02:09:38.241Z,7.90
2019-05-06T02:12:08.485Z,7.37
2019-05-06T02:14:38.561Z,6.67
2019-05-06T02:17:11.413Z,9.43
2019-05-06T02:19:43.666Z,7.57
2019-05-06T02:22:29.544Z,7.33
2019-05-06T02:25:13.812Z,7.30
2019-05-06T02:27:44.495Z,7.00
2019-05-06T02:30:46.441Z,7.43
2019-05-06T02:33:24.549Z,8.07
2019-05-06T02:36:02.677Z,7.37
2019-05-06T02:38:46.036Z,6.80
2019-05-06T02:41:05.605Z,7.17
2019-05-06T02:43:35.760Z,7.67
2019-05-06T02:46:05.855Z,7.57
2019-05-06T02:48:55.234Z,7.20
2019-05-06T02:51:27.735Z,7.30
2019-05-06T02:53:57.817Z,7.80
2019-05-06T02:56:27.910Z,7.00
2019-05-06T02:58:58.322Z,7.60
2019-05-06T03:01:28.519Z,6.93
2019-05-06T03:03:58.704Z,6.13
2019-05-06T03:06:29.110Z,7.00
2019-05-06T03:08:59.407Z,7.37
2019-05-06T03:11:29.531Z,7.13
2019-05-06T03:13:59.695Z,7.60
2019-05-06T03:16:33.077Z,7.47
2019-05-06T03:19:04.128Z,7.10
2019-05-06T03:22:13.147Z,7.47
2019-05-06T03:25:18.927Z,7.90
2019-05-06T03:27:49.273Z,8.30
2019-05-06T03:30:19.494Z,7.43
2019-05-06T03:33:27.600Z,7.93
2019-05-06T03:35:40.324Z,8.70
2019-05-06T03:37:53.603Z,7.83
2019-05-06T03:40:23.945Z,7.30
2019-05-06T03:42:54.258Z,7.30
2019-05-06T03:45:33.569Z,7.80
2019-05-06T03:48:13.019Z,8.47
2019-05-06T03:50:44.020Z,7.93
2019-05-06T03:53:15.462Z,8.37
2019-05-06T03:55:47.032Z,10.50
2019-05-06T03:58:17.808Z,7.63
2019-05-06T04:00:48.428Z,7.97
2019-05-06T04:03:18.765Z,8.13
2019-05-06T04:05:49.031Z,7.37
2019-05-06T04:08:21.391Z,7.07
2019-05-06T04:10:54.236Z,8.00
2019-05-06T04:13:24.559Z,7.67
2019-05-06T04:16:17.211Z,7.57
2019-05-06T04:18:55.681Z,8.40
2019-05-06T04:21:36.068Z,10.77
2019-05-06T04:24:22.957Z,7.97
2019-05-06T04:27:13.506Z,7.53
2019-05-06T04:29:43.989Z,7.33
2019-05-06T04:32:14.102Z,7.43
2019-05-06T04:34:44.880Z,7.53
2019-05-06T04:37:14.937Z,8.40
2019-05-06T04:39:44.977Z,15.33
2019-05-06T04:42:15.114Z,8.13
2019-05-06T04:44:45.571Z,7.17
2019-05-06T04:47:16.743Z,9.60
2019-05-06T04:49:46.756Z,8.13
2019-05-06T04:52:16.848Z,7.23
2019-05-06T04:54:47.212Z,7.23
2019-05-06T04:57:17.733Z,7.15
2019-05-06T04:59:47.955Z,7.17
2019-05-06T05:02:18.059Z,6.30
2019-05-06T05:04:48.413Z,12.00
2019-05-06T05:07:19.224Z,6.97
2019-05-06T05:09:53.320Z,7.87
2019-05-06T05:12:29.003Z,8.23
2019-05-06T05:15:18.638Z,7.90
2019-05-06T05:17:57.248Z,6.87
2019-05-06T05:20:37.789Z,7.10
2019-05-06T05:23:02.297Z,7.53
2019-05-06T05:25:32.920Z,7.40
2019-05-06T05:28:03.291Z,6.20
2019-05-06T05:30:33.900Z,7.00
2019-05-06T05:33:04.948Z,9.47
2019-05-06T05:35:35.101Z,10.00
2019-05-06T05:38:05.247Z,7.50
2019-05-06T05:40:35.462Z,7.50
2019-05-06T05:43:17.247Z,6.67
2019-05-06T05:45:48.223Z,7.10
2019-05-06T05:48:51.972Z,7.73
2019-05-06T05:51:22.385Z,9.90
2019-05-06T05:53:52.753Z,7.77
2019-05-06T05:56:24.021Z,7.60
2019-05-06T05:58:54.546Z,7.03
2019-05-06T06:01:26.798Z,6.73
2019-05-06T06:03:57.148Z,9.40
2019-05-06T06:06:27.302Z,7.17
2019-05-06T06:08:58.553Z,9.13
2019-05-06T06:11:42.107Z,7.97
2019-05-06T06:14:33.189Z,9.00
2019-05-06T06:17:37.894Z,8.57
2019-05-06T06:20:26.676Z,7.57
2019-05-06T06:23:03.373Z,7.70
2019-05-06T06:25:33.716Z,8.20
2019-05-06T06:28:04.363Z,8.43
2019-05-06T06:30:51.981Z,8.60
2019-05-06T06:33:22.469Z,8.37
2019-05-06T06:36:04.854Z,9.60
2019-05-06T06:38:52.774Z,10.83
2019-05-06T06:41:23.339Z,6.97
2019-05-06T06:43:57.147Z,7.70
2019-05-06T06:46:27.283Z,6.83
2019-05-06T06:48:57.385Z,7.27
2019-05-06T06:51:28.172Z,8.20
2019-05-06T06:53:58.309Z,7.80
2019-05-06T06:57:06.177Z,7.67
2019-05-06T06:59:39.973Z,6.80
2019-05-06T07:02:39.145Z,8.15
2019-05-06T07:05:25.429Z,6.90
2019-05-06T07:07:48.755Z,6.90
2019-05-06T07:10:36.723Z,7.33
2019-05-06T07:13:06.886Z,7.47
2019-05-06T07:15:37.269Z,7.20
2019-05-06T07:18:07.631Z,6.90
2019-05-06T07:20:57.150Z,6.70
2019-05-06T07:23:28.407Z,6.20
2019-05-06T07:25:59.023Z,7.83
2019-05-06T07:28:32.627Z,8.10
2019-05-06T07:31:17.542Z,5.97
2019-05-06T07:33:35.676Z,5.90
2019-05-06T07:36:07.387Z,6.27
2019-05-06T07:38:39.355Z,7.03
2019-05-06T07:41:17.780Z,7.00
2019-05-06T07:44:06.505Z,6.93
2019-05-06T07:46:52.472Z,5.77
2019-05-06T07:49:23.518Z,5.20
2019-05-06T07:51:55.093Z,6.40
2019-05-06T07:54:25.597Z,4.60
2019-05-06T07:56:55.671Z,4.83
2019-05-06T07:59:25.730Z,5.10
2019-05-06T08:01:55.905Z,4.30
2019-05-06T08:04:26.071Z,5.63
2019-05-06T08:06:56.169Z,5.27
2019-05-06T08:09:26.525Z,5.93
2019-05-06T08:11:56.838Z,4.90
2019-05-06T08:14:42.949Z,5.47
2019-05-06T08:17:37.937Z,5.20
2019-05-06T08:20:09.373Z,5.30
2019-05-06T08:22:57.035Z,4.90
2019-05-06T08:25:28.781Z,5.90
2019-05-06T08:27:59.048Z,6.10
2019-05-06T08:30:29.093Z,6.27
2019-05-06T08:33:01.802Z,5.40
2019-05-06T08:35:33.144Z,5.00
2019-05-06T08:38:03.988Z,4.40
2019-05-06T08:40:34.171Z,4.50
2019-05-06T08:43:04.277Z,5.07
2019-05-06T08:45:34.781Z,6.67
2019-05-06T08:48:04.982Z,5.00
2019-05-06T08:50:46.635Z,4.80
2019-05-06T08:53:32.898Z,4.23
2019-05-06T08:56:05.309Z,6.05
2019-05-06T08:58:48.541Z,4.40
2019-05-06T09:01:44.531Z,4.57
2019-05-06T09:04:16.351Z,5.08
2019-05-06T09:06:47.050Z,5.70
2019-05-06T09:09:17.287Z,5.90
2019-05-06T09:11:47.404Z,5.23
2019-05-06T09:14:17.559Z,5.70
2019-05-06T09:16:50.670Z,4.00
2019-05-06T09:19:20.058Z,3.10
2019-05-06T09:21:50.116Z,3.13
2019-05-06T09:24:23.033Z,4.23
2019-05-06T09:27:05.943Z,4.60
2019-05-06T09:29:46.143Z,4.00
2019-05-06T09:32:35.698Z,5.03
2019-05-06T09:35:05.481Z,4.30
2019-05-06T09:37:35.793Z,4.90
2019-05-06T09:40:06.723Z,4.10
2019-05-06T09:42:36.866Z,4.63
2019-05-06T09:45:07.427Z,5.90
2019-05-06T09:47:44.392Z,4.73
2019-05-06T09:50:18.209Z,5.00
2019-05-06T09:52:48.663Z,4.90
2019-05-06T09:55:28.873Z,5.40
2019-05-06T09:58:03.222Z,4.57
2019-05-06T10:00:35.779Z,4.10
2019-05-06T10:03:06.256Z,4.37
2019-05-06T10:05:36.423Z,3.60
2019-05-06T10:08:06.514Z,4.27
2019-05-06T10:10:37.903Z,4.93
2019-05-06T10:13:08.142Z,4.23
2019-05-06T10:15:38.611Z,4.70
2019-05-06T10:18:12.739Z,5.07
2019-05-06T10:20:44.836Z,3.97
2019-05-06T10:23:16.666Z,4.40
2019-05-06T10:25:47.149Z,4.90
2019-05-06T10:28:28.011Z,3.70
2019-05-06T10:30:58.911Z,4.27
2019-05-06T10:33:32.309Z,5.30
2019-05-06T10:36:03.516Z,5.30
2019-05-06T10:38:57.804Z,3.70
2019-05-06T10:41:32.908Z,6.10
2019-05-06T10:44:29.905Z,4.80
2019-05-06T10:47:00.276Z,3.40
2019-05-06T10:49:30.470Z,4.33
2019-05-06T10:52:12.572Z,9.43
2019-05-06T10:54:43.641Z,4.80
2019-05-06T10:57:32.818Z,7.27
2019-05-06T11:00:05.632Z,4.53
2019-05-06T11:02:57.981Z,5.57
2019-05-06T11:05:28.461Z,4.93
2019-05-06T11:07:58.663Z,4.87
2019-05-06T11:10:37.846Z,5.40
2019-05-06T11:13:03.302Z,4.77
2019-05-06T11:15:32.984Z,5.13
2019-05-06T11:18:05.022Z,4.95
2019-05-06T11:20:35.398Z,5.37
2019-05-06T11:23:05.949Z,5.37
2019-05-06T11:25:37.749Z,6.17
2019-05-06T11:28:26.999Z,5.17
2019-05-06T11:31:13.883Z,5.33
2019-05-06T11:33:53.450Z,5.60
2019-05-06T11:36:28.112Z,5.10
2019-05-06T11:38:58.430Z,5.43
2019-05-06T11:41:28.601Z,5.40
2019-05-06T11:43:58.756Z,5.73
2019-05-06T11:46:28.907Z,5.03
2019-05-06T11:48:59.121Z,4.97
2019-05-06T11:51:32.890Z,5.10
2019-05-06T11:54:16.371Z,6.53
2019-05-06T11:56:47.775Z,5.20
2019-05-06T11:59:08.584Z,6.03
2019-05-06T12:01:44.951Z,4.83
2019-05-06T12:04:15.060Z,7.97
2019-05-06T12:06:45.446Z,5.27
2019-05-06T12:09:17.012Z,5.00
2019-05-06T12:11:47.601Z,5.20
2019-05-06T12:14:17.730Z,5.60
2019-05-06T12:16:47.881Z,5.30
2019-05-06T12:19:18.124Z,4.70
2019-05-06T12:21:48.388Z,4.47
2019-05-06T12:24:18.691Z,4.60
2019-05-06T12:26:48.762Z,4.77
2019-05-06T12:29:18.977Z,5.00
2019-05-06T12:31:55.423Z,5.03
2019-05-06T12:34:25.699Z,4.70
2019-05-06T12:36:59.645Z,4.60
2019-05-06T12:39:33.379Z,5.00
2019-05-06T12:42:25.260Z,4.70
2019-05-06T12:45:13.797Z,4.90
2019-05-06T12:47:53.334Z,5.37
2019-05-06T12:50:23.739Z,5.60
2019-05-06T12:52:57.266Z,5.43
2019-05-06T12:55:28.074Z,5.00
2019-05-06T12:57:59.367Z,5.00
2019-05-06T13:00:31.339Z,5.00
2019-05-06T13:03:02.387Z,4.57
2019-05-06T13:05:32.896Z,4.90
2019-05-06T13:08:05.392Z,7.17
2019-05-06T13:10:35.078Z,5.87
2019-05-06T13:13:05.555Z,6.70
2019-05-06T13:15:35.779Z,7.03
2019-05-06T13:18:07.438Z,7.60
2019-05-06T13:20:39.285Z,5.37
2019-05-06T13:23:28.587Z,4.60
2019-05-06T13:25:58.999Z,4.97
2019-05-06T13:28:33.234Z,4.93
2019-05-06T13:31:15.894Z,5.90
2019-05-06T13:33:54.830Z,6.87
2019-05-06T13:36:25.306Z,7.40
2019-05-06T13:39:09.578Z,5.23
2019-05-06T13:41:27.390Z,7.70
2019-05-06T13:44:17.617Z,5.73
2019-05-06T13:46:53.352Z,5.80
2019-05-06T13:49:48.504Z,5.60
2019-05-06T13:52:22.948Z,5.70
2019-05-06T13:54:54.475Z,7.20
2019-05-06T13:57:24.657Z,5.97
2019-05-06T13:59:54.954Z,6.10
2019-05-06T14:02:38.591Z,5.70
2019-05-06T14:05:12.162Z,6.10
2019-05-06T14:07:43.357Z,5.47
2019-05-06T14:10:14.279Z,5.10
2019-05-06T14:12:44.497Z,4.87
2019-05-06T14:15:16.500Z,6.03
2019-05-06T14:17:46.628Z,6.03
2019-05-06T14:20:18.052Z,4.20
2019-05-06T14:22:48.122Z,5.17
2019-05-06T14:25:45.037Z,7.60
2019-05-06T14:28:34.164Z,6.00
2019-05-06T14:31:27.511Z,5.70
2019-05-06T14:33:57.703Z,5.93
2019-05-06T14:36:29.174Z,6.67
2019-05-06T14:38:59.388Z,5.80
2019-05-06T14:41:32.717Z,5.63
2019-05-06T14:44:05.373Z,5.63
2019-05-06T14:46:59.410Z,5.83
2019-05-06T14:49:29.607Z,5.67
2019-05-06T14:52:02.456Z,6.00
2019-05-06T14:54:34.819Z,6.70
2019-05-06T14:57:12.938Z,6.43
2019-05-06T14:59:45.068Z,6.37
2019-05-06T15:02:15.458Z,5.90
2019-05-06T15:04:45.649Z,4.63
2019-05-06T15:07:15.832Z,5.87
2019-05-06T15:09:58.438Z,6.47
2019-05-06T15:12:19.511Z,5.83
2019-05-06T15:14:52.359Z,5.50
2019-05-06T15:17:22.856Z,5.40
2019-05-06T15:19:53.373Z,7.70
2019-05-06T15:22:23.582Z,5.20
2019-05-06T15:24:54.804Z,7.17
2019-05-06T15:27:24.997Z,5.97
2019-05-06T15:29:57.551Z,6.80
2019-05-06T15:32:34.181Z,7.00
2019-05-06T15:35:25.540Z,7.25
2019-05-06T15:37:58.884Z,7.87
2019-05-06T15:40:33.900Z,7.60
2019-05-06T15:43:02.203Z,7.80
2019-05-06T15:45:32.704Z,7.57
2019-05-06T15:48:02.893Z,7.17
2019-05-06T15:50:33.410Z,6.30
2019-05-06T15:53:03.629Z,7.10
2019-05-06T15:55:33.773Z,8.00
2019-05-06T15:58:05.777Z,7.20
2019-05-06T16:00:35.868Z,7.63
2019-05-06T16:03:06.424Z,7.27
2019-05-06T16:05:36.603Z,7.67
2019-05-06T16:08:06.668Z,12.00
2019-05-06T16:10:51.296Z,6.93
2019-05-06T16:13:08.833Z,8.30
2019-05-06T16:15:38.950Z,7.70
2019-05-06T16:18:09.115Z,8.00
2019-05-06T16:20:39.477Z,7.77
2019-05-06T16:23:23.070Z,6.73
2019-05-06T16:25:53.779Z,8.80
2019-05-06T16:28:25.602Z,7.90
2019-05-06T16:30:57.075Z,7.30
2019-05-06T16:33:27.282Z,6.07
2019-05-06T16:36:04.673Z,8.10
2019-05-06T16:38:34.918Z,7.63
2019-05-06T16:41:12.371Z,6.60
2019-05-06T16:43:52.347Z,6.20
2019-05-06T16:46:27.673Z,6.20
2019-05-06T16:49:02.227Z,6.40
2019-05-06T16:51:32.658Z,6.67
2019-05-06T16:54:03.037Z,6.10
2019-05-06T16:56:41.792Z,6.03
2019-05-06T16:59:13.827Z,6.20
2019-05-06T17:01:45.494Z,6.03
2019-05-06T17:04:34.671Z,6.53
2019-05-06T17:07:05.904Z,6.25
2019-05-06T17:09:36.259Z,6.60
2019-05-06T17:12:06.665Z,5.60
2019-05-06T17:14:36.808Z,6.20
2019-05-06T17:17:07.066Z,5.77
2019-05-06T17:19:37.134Z,5.60
2019-05-06T17:22:07.296Z,8.17
2019-05-06T17:24:37.415Z,7.70
2019-05-06T17:27:08.999Z,6.80
2019-05-06T17:29:49.498Z,6.13
2019-05-06T17:32:52.604Z,6.20
2019-05-06T17:35:23.454Z,7.00
2019-05-06T17:38:02.207Z,7.57
2019-05-06T17:40:32.867Z,7.33
2019-05-06T17:43:03.121Z,9.30
2019-05-06T17:46:06.733Z,8.83
2019-05-06T17:48:55.243Z,7.50
2019-05-06T17:51:37.547Z,7.03
2019-05-06T17:54:08.032Z,5.67
2019-05-06T17:56:39.302Z,8.07
2019-05-06T17:59:09.455Z,9.83
2019-05-06T18:01:43.464Z,7.20
2019-05-06T18:04:13.907Z,8.85
2019-05-06T18:06:44.204Z,7.47
2019-05-06T18:09:14.694Z,9.40
2019-05-06T18:11:58.509Z,8.37
2019-05-06T18:14:22.989Z,10.30
2019-05-06T18:16:53.842Z,9.07
2019-05-06T18:19:24.823Z,8.47
2019-05-06T18:21:55.071Z,8.77
2019-05-06T18:24:25.238Z,8.80
2019-05-06T18:26:55.551Z,8.77
2019-05-06T18:29:25.931Z,9.30
2019-05-06T18:31:57.604Z,10.63
2019-05-06T18:34:28.085Z,7.30
2019-05-06T18:37:03.240Z,7.97
2019-05-06T18:39:34.051Z,8.83
2019-05-06T18:42:17.029Z,8.50
2019-05-06T18:44:38.061Z,9.50
2019-05-06T18:47:08.320Z,11.03
2019-05-06T18:49:38.465Z,9.50
2019-05-06T18:52:08.720Z,9.07
2019-05-06T18:54:39.199Z,10.50
2019-05-06T18:57:09.421Z,9.57
2019-05-06T18:59:39.541Z,10.17
2019-05-06T19:02:12.933Z,9.60
2019-05-06T19:04:57.078Z,9.40
2019-05-06T19:07:27.323Z,9.63
2019-05-06T19:10:03.769Z,9.20
2019-05-06T19:12:40.631Z,9.90
2019-05-06T19:15:07.772Z,8.60
2019-05-06T19:17:39.221Z,9.70
2019-05-06T19:20:10.683Z,13.10
2019-05-06T19:22:40.823Z,14.03
2019-05-06T19:25:14.331Z,12.70
2019-05-06T19:27:43.729Z,10.97
2019-05-06T19:30:14.439Z,10.30
2019-05-06T19:32:45.515Z,9.10
2019-05-06T19:35:15.953Z,11.93
2019-05-06T19:37:46.405Z,18.87
2019-05-06T19:40:16.687Z,15.63
2019-05-06T19:42:49.976Z,11.13
2019-05-06T19:45:19.482Z,11.00
2019-05-06T19:47:52.158Z,11.90
2019-05-06T19:50:25.801Z,9.70
2019-05-06T19:52:53.958Z,12.17
2019-05-06T19:55:24.443Z,9.35
2019-05-06T19:57:54.624Z,11.60
2019-05-06T20:00:25.228Z,8.57
2019-05-06T20:02:55.728Z,14.43
2019-05-06T20:05:32.442Z,10.07
2019-05-06T20:08:12.528Z,13.30
2019-05-06T20:11:02.328Z,11.00
2019-05-06T20:13:33.769Z,12.50
2019-05-06T20:16:03.964Z,11.87
2019-05-06T20:18:34.427Z,11.40
2019-05-06T20:21:04.590Z,10.70
2019-05-06T20:23:34.735Z,12.90
2019-05-06T20:26:04.993Z,10.07
2019-05-06T20:28:35.155Z,10.63
2019-05-06T20:31:06.704Z,12.82
2019-05-06T20:33:36.933Z,12.60
2019-05-06T20:36:08.453Z,11.63
2019-05-06T20:38:38.752Z,9.90
2019-05-06T20:41:09.270Z,13.17
2019-05-06T20:43:39.530Z,10.60
2019-05-06T20:46:09.700Z,14.37
2019-05-06T20:48:42.042Z,11.97
2019-05-06T20:51:12.359Z,14.17
2019-05-06T20:53:43.281Z,14.27
2019-05-06T20:56:13.690Z,12.10
2019-05-06T20:58:43.925Z,12.87
2019-05-06T21:01:14.590Z,11.30
2019-05-06T21:03:44.812Z,11.27
2019-05-06T21:06:14.946Z,12.83
2019-05-06T21:08:45.170Z,10.77
2019-05-06T21:11:25.391Z,10.98
2019-05-06T21:13:47.639Z,12.67
2019-05-06T21:16:18.082Z,10.90
2019-05-06T21:18:48.472Z,11.43
2019-05-06T21:21:21.026Z,12.27
2019-05-06T21:23:52.439Z,14.30
2019-05-06T21:26:22.860Z,12.70
2019-05-06T21:28:52.936Z,11.07
2019-05-06T21:31:25.772Z,10.90
2019-05-06T21:33:57.424Z,13.10
2019-05-06T21:36:28.002Z,15.00
2019-05-06T21:38:59.036Z,15.50
2019-05-06T21:41:29.172Z,13.73
2019-05-06T21:43:59.571Z,11.20
2019-05-06T21:46:31.873Z,9.93
2019-05-06T21:49:01.782Z,12.37
2019-05-06T21:51:32.804Z,11.47
2019-05-06T21:54:03.049Z,12.83
2019-05-06T21:56:34.345Z,11.60
2019-05-06T21:59:04.927Z,12.47
2019-05-06T22:01:35.547Z,10.80
2019-05-06T22:04:07.049Z,14.00
2019-05-06T22:06:37.138Z,11.60
2019-05-06T22:09:07.835Z,11.93
2019-05-06T22:11:38.118Z,10.60
2019-05-06T22:14:08.248Z,11.17
2019-05-06T22:16:38.592Z,11.33
2019-05-06T22:19:09.052Z,10.57
2019-05-06T22:21:58.531Z,11.27
2019-05-06T22:24:42.703Z,10.07
2019-05-06T22:27:12.832Z,10.40
2019-05-06T22:29:43.118Z,12.60
2019-05-06T22:32:14.906Z,10.10
2019-05-06T22:34:45.345Z,10.03
2019-05-06T22:37:15.525Z,10.73
2019-05-06T22:39:45.623Z,10.80
2019-05-06T22:42:15.825Z,13.30
2019-05-06T22:44:46.101Z,8.97
2019-05-06T22:47:17.233Z,9.77
2019-05-06T22:49:47.395Z,9.53
2019-05-06T22:52:17.609Z,11.17
2019-05-06T22:54:47.994Z,10.50
2019-05-06T22:57:18.441Z,11.18
2019-05-06T22:59:48.554Z,8.40
2019-05-06T23:02:37.581Z,9.47
2019-05-06T23:05:09.086Z,11.23
2019-05-06T23:07:39.222Z,8.87
2019-05-06T23:10:09.373Z,9.20
2019-05-06T23:12:39.446Z,9.63
2019-05-06T23:15:12.001Z,9.20
2019-05-06T23:17:42.086Z,8.00
2019-05-06T23:20:12.997Z,10.93
2019-05-06T23:22:43.399Z,9.10
2019-05-06T23:25:13.779Z,7.90
2019-05-06T23:27:44.271Z,7.97
2019-05-06T23:30:14.633Z,9.33
2019-05-06T23:32:44.743Z,10.27
2019-05-06T23:35:14.907Z,9.17
2019-05-06T23:38:22.904Z,9.43
2019-05-06T23:41:28.259Z,9.90
2019-05-06T23:44:45.017Z,8.90
2019-05-06T23:47:42.563Z,9.03
2019-05-06T23:50:48.699Z,9.00
2019-05-06T23:53:55.805Z,9.43
2019-05-06T23:56:43.291Z,8.10
2019-05-06T23:59:14.505Z,9.57
